createdAt,value
2017-02-27T00:00:33.325Z,-2.52
2017-02-27T00:01:43.643Z,-2.52
2017-02-27T00:02:54.355Z,-2.52
2017-02-27T00:04:05.076Z,-2.48
2017-02-27T00:05:15.773Z,-2.51
2017-02-27T00:06:26.493Z,-2.61
2017-02-27T00:07:37.182Z,-2.52
2017-02-27T00:08:47.881Z,-2.55
2017-02-27T00:09:58.596Z,-2.51
2017-02-27T00:11:08.502Z,-2.48
2017-02-27T00:12:19.213Z,-2.5
2017-02-27T00:13:29.912Z,-2.51
2017-02-27T00:14:40.626Z,-2.57
2017-02-27T00:15:51.310Z,-2.58
2017-02-27T00:17:02.013Z,-2.45
2017-02-27T00:18:12.715Z,-2.52
2017-02-27T00:19:23.032Z,-2.58
2017-02-27T00:20:33.331Z,-2.4
2017-02-27T00:21:44.024Z,-2.47
2017-02-27T00:22:54.724Z,-2.37
2017-02-27T00:24:05.417Z,-2.37
2017-02-27T00:25:16.116Z,-2.5
2017-02-27T00:26:26.819Z,-2.33
2017-02-27T00:27:37.527Z,-2.33
2017-02-27T00:28:48.231Z,-2.2
2017-02-27T00:29:58.940Z,-2.11
2017-02-27T00:31:09.244Z,-2.13
2017-02-27T00:32:19.956Z,-2.07
2017-02-27T00:33:30.663Z,-2.05
2017-02-27T00:34:40.987Z,-2.05
2017-02-27T00:35:51.687Z,-2.1
2017-02-27T00:37:02.384Z,-2.05
2017-02-27T00:38:13.086Z,-2.17
2017-02-27T00:39:23.808Z,-2.13
2017-02-27T00:40:34.117Z,-2.2
2017-02-27T00:41:44.842Z,-2.2
2017-02-27T00:42:55.546Z,-2.26
2017-02-27T00:44:06.240Z,-2.18
2017-02-27T00:45:16.944Z,-2.33
2017-02-27T00:46:27.261Z,-2.34
2017-02-27T00:47:38.014Z,-2.28
2017-02-27T00:48:48.729Z,-2.29
2017-02-27T00:49:59.423Z,-2.34
2017-02-27T00:51:10.149Z,-2.33
2017-02-27T00:52:20.845Z,-2.23
2017-02-27T00:53:31.590Z,-2.33
2017-02-27T00:54:42.298Z,-2.32
2017-02-27T00:55:53.000Z,-2.33
2017-02-27T00:57:03.702Z,-2.34
2017-02-27T00:58:14.401Z,-2.33
2017-02-27T00:59:25.089Z,-2.23
2017-02-27T01:00:35.420Z,-2.29
2017-02-27T01:01:46.204Z,-2.32
2017-02-27T01:02:56.936Z,-2.28
2017-02-27T01:04:07.644Z,-2.15
2017-02-27T01:05:18.349Z,-2.22
2017-02-27T01:06:28.658Z,-2.2
2017-02-27T01:07:39.363Z,-2.26
2017-02-27T01:08:50.059Z,-2.13
2017-02-27T01:10:00.754Z,-2.05
2017-02-27T01:11:11.475Z,-2.04
2017-02-27T01:12:22.189Z,-1.92
2017-02-27T01:13:32.881Z,-1.94
2017-02-27T01:14:43.576Z,-1.93
2017-02-27T01:15:54.303Z,-1.9
2017-02-27T01:17:05.010Z,-1.9
2017-02-27T01:18:14.911Z,-1.79
2017-02-27T01:19:25.223Z,-1.89
2017-02-27T01:20:35.130Z,-1.86
2017-02-27T01:21:45.831Z,-1.87
2017-02-27T01:22:56.545Z,-1.92
2017-02-27T01:24:07.248Z,-1.89
2017-02-27T01:25:17.938Z,-1.9
2017-02-27T01:26:28.633Z,-1.86
2017-02-27T01:27:38.538Z,-1.86
2017-02-27T01:28:49.237Z,-1.84
2017-02-27T01:29:59.585Z,-1.86
2017-02-27T01:31:09.916Z,-1.87
2017-02-27T01:32:20.619Z,-1.72
2017-02-27T01:33:31.331Z,-1.82
2017-02-27T01:34:41.653Z,-1.57
2017-02-27T01:52:46.262Z,-1.79
2017-02-27T01:53:56.994Z,-1.74
2017-02-27T01:55:07.717Z,-1.76
2017-02-27T01:56:18.428Z,-1.63
2017-02-27T01:57:29.144Z,-1.58
2017-02-27T01:58:39.843Z,-1.71
2017-02-27T01:59:50.155Z,-1.66
2017-02-27T02:01:00.855Z,-1.58
2017-02-27T02:02:11.557Z,-1.46
2017-02-27T02:03:22.295Z,-1.4
2017-02-27T02:04:32.995Z,-1.46
2017-02-27T02:05:43.308Z,-1.48
2017-02-27T02:06:52.817Z,-1.42
2017-02-27T02:08:03.530Z,-1.54
2017-02-27T02:09:14.245Z,-1.57
2017-02-27T02:10:24.956Z,-1.57
2017-02-27T02:11:35.653Z,-1.61
2017-02-27T02:12:46.368Z,-1.6
2017-02-27T02:13:57.063Z,-1.54
2017-02-27T02:15:07.790Z,-1.51
2017-02-27T02:16:18.089Z,-1.57
2017-02-27T02:17:28.406Z,-1.35
2017-02-27T02:18:39.095Z,-1.43
2017-02-27T02:19:49.806Z,-1.32
2017-02-27T02:21:00.501Z,-1.3
2017-02-27T02:22:10.830Z,-1.25
2017-02-27T02:23:20.735Z,-1.22
2017-02-27T02:24:31.043Z,-1.12
2017-02-27T02:25:41.743Z,-1.07
2017-02-27T02:26:52.446Z,-0.99
2017-02-27T02:28:03.140Z,-0.93
2017-02-27T02:29:13.854Z,-0.93
2017-02-27T02:30:24.546Z,-0.85
2017-02-27T02:31:35.279Z,-0.77
2017-02-27T02:32:45.980Z,-0.75
2017-02-27T02:33:56.302Z,-0.75
2017-02-27T02:35:07.007Z,-0.75
2017-02-27T02:36:17.744Z,-0.66
2017-02-27T02:37:28.064Z,-0.63
2017-02-27T02:38:38.796Z,-0.56
2017-02-27T02:39:49.132Z,-0.59
2017-02-27T02:40:59.863Z,-0.57
2017-02-27T02:42:10.562Z,-0.54
2017-02-27T02:43:21.262Z,-0.42
2017-02-27T02:44:31.971Z,-0.39
2017-02-27T02:45:42.675Z,-0.33
2017-02-27T02:46:52.572Z,-0.33
2017-02-27T02:48:03.319Z,-0.36
2017-02-27T02:49:13.624Z,-0.18
2017-02-27T02:50:23.947Z,-0.2
2017-02-27T02:51:34.646Z,-0.12
2017-02-27T02:52:45.364Z,-0.06
2017-02-27T02:53:56.063Z,-0.03
2017-02-27T02:55:06.796Z,-0.06
2017-02-27T02:56:17.513Z,0.02
2017-02-27T02:57:28.234Z,-0.03
2017-02-27T02:58:38.950Z,0.08
2017-02-27T02:59:49.658Z,-0.05
2017-02-27T03:00:59.956Z,0.05
2017-02-27T03:02:10.260Z,0.06
2017-02-27T03:03:20.968Z,0.16
2017-02-27T03:04:31.703Z,0.2
2017-02-27T03:05:42.403Z,0.24
2017-02-27T03:06:53.125Z,0.29
2017-02-27T03:08:03.438Z,0.33
2017-02-27T03:09:14.135Z,0.37
2017-02-27T03:10:24.852Z,0.33
2017-02-27T03:11:34.761Z,0.3
2017-02-27T03:12:45.457Z,0.39
2017-02-27T03:13:56.154Z,0.48
2017-02-27T03:15:06.850Z,0.45
2017-02-27T03:16:17.149Z,0.56
2017-02-27T03:17:27.881Z,0.51
2017-02-27T03:18:37.799Z,0.64
2017-02-27T03:19:48.492Z,0.47
2017-02-27T03:20:59.212Z,0.61
2017-02-27T03:22:09.910Z,0.52
2017-02-27T03:23:20.611Z,0.56
2017-02-27T03:24:31.309Z,0.59
2017-02-27T03:25:42.028Z,0.66
2017-02-27T03:26:52.735Z,0.56
2017-02-27T03:28:03.443Z,0.67
2017-02-27T03:29:14.158Z,0.77
2017-02-27T03:30:24.461Z,0.74
2017-02-27T03:31:35.165Z,0.74
2017-02-27T03:32:45.877Z,0.77
2017-02-27T03:33:55.776Z,0.77
2017-02-27T03:35:06.098Z,0.84
2017-02-27T03:36:16.810Z,0.81
2017-02-27T03:37:27.132Z,0.81
2017-02-27T03:38:37.828Z,0.86
2017-02-27T03:39:48.553Z,0.84
2017-02-27T03:40:58.850Z,0.89
2017-02-27T03:42:09.187Z,0.94
2017-02-27T03:43:19.889Z,0.95
2017-02-27T03:44:30.194Z,0.95
2017-02-27T03:45:40.507Z,1
2017-02-27T03:46:51.211Z,0.99
2017-02-27T03:48:01.521Z,1.02
2017-02-27T03:49:12.237Z,1.03
2017-02-27T03:50:22.145Z,1
2017-02-27T03:51:32.861Z,1.06
2017-02-27T03:52:42.789Z,1.1
2017-02-27T03:53:53.498Z,1.12
2017-02-27T03:55:04.218Z,1.04
2017-02-27T03:56:14.931Z,1.07
2017-02-27T03:57:25.231Z,1.09
2017-02-27T03:58:35.933Z,1.09
2017-02-27T03:59:46.254Z,1.09
2017-02-27T04:00:56.956Z,1.06
2017-02-27T04:02:07.703Z,1.09
2017-02-27T04:03:18.008Z,1.06
2017-02-27T04:04:28.329Z,1.18
2017-02-27T04:05:39.045Z,1.12
2017-02-27T04:06:49.738Z,1.12
2017-02-27T04:08:00.427Z,1.14
2017-02-27T04:09:11.195Z,1.22
2017-02-27T04:10:21.908Z,1.24
2017-02-27T04:11:32.597Z,1.14
2017-02-27T04:12:43.306Z,1.21
2017-02-27T04:13:54.049Z,1.18
2017-02-27T04:15:04.375Z,1.14
2017-02-27T04:16:15.076Z,1.12
2017-02-27T04:17:25.007Z,1.28
2017-02-27T04:18:35.699Z,1.13
2017-02-27T04:19:46.402Z,1.2
2017-02-27T04:20:55.931Z,1.2
2017-02-27T04:22:06.239Z,1.27
2017-02-27T04:23:16.959Z,1.16
2017-02-27T04:24:27.268Z,1.21
2017-02-27T04:25:37.976Z,1.22
2017-02-27T04:26:48.675Z,1.18
2017-02-27T04:27:59.381Z,1.34
2017-02-27T04:29:10.081Z,1.34
2017-02-27T04:30:20.776Z,1.38
2017-02-27T04:31:30.702Z,1.38
2017-02-27T04:32:41.397Z,1.31
2017-02-27T04:33:51.707Z,1.32
2017-02-27T04:35:02.032Z,1.3
2017-02-27T04:36:12.744Z,1.32
2017-02-27T04:37:23.039Z,1.24
2017-02-27T04:38:33.347Z,1.27
2017-02-27T04:39:44.060Z,1.32
2017-02-27T04:40:54.360Z,1.3
2017-02-27T04:42:05.073Z,1.22
2017-02-27T04:43:15.770Z,1.27
2017-02-27T04:44:26.101Z,1.25
2017-02-27T04:45:36.803Z,1.25
2017-02-27T04:46:47.516Z,1.22
2017-02-27T04:47:57.823Z,1.22
2017-02-27T04:49:08.551Z,1.18
2017-02-27T04:50:18.851Z,1.25
2017-02-27T04:51:29.564Z,1.24
2017-02-27T04:52:39.869Z,1.24
2017-02-27T04:53:50.187Z,1.27
2017-02-27T04:55:00.489Z,1.31
2017-02-27T04:56:10.809Z,1.25
2017-02-27T04:57:21.511Z,1.27
2017-02-27T04:58:32.221Z,1.27
2017-02-27T04:59:42.909Z,1.27
2017-02-27T05:00:53.217Z,1.22
2017-02-27T05:02:03.511Z,1.3
2017-02-27T05:03:14.228Z,1.3
2017-02-27T05:04:24.529Z,1.34
2017-02-27T05:05:35.250Z,1.31
2017-02-27T05:06:45.955Z,1.39
2017-02-27T05:07:56.644Z,1.31
2017-02-27T05:09:07.346Z,1.32
2017-02-27T05:10:18.050Z,1.31
2017-02-27T05:11:28.762Z,1.38
2017-02-27T05:12:39.453Z,1.36
2017-02-27T05:13:50.156Z,1.34
2017-02-27T05:15:00.859Z,1.36
2017-02-27T05:16:11.159Z,1.36
2017-02-27T05:17:21.872Z,1.38
2017-02-27T05:18:32.593Z,1.34
2017-02-27T05:19:43.301Z,1.36
2017-02-27T05:20:53.609Z,1.36
2017-02-27T05:22:03.926Z,1.36
2017-02-27T05:23:14.635Z,1.3
2017-02-27T05:24:25.322Z,1.31
2017-02-27T05:25:35.631Z,1.36
2017-02-27T05:26:45.924Z,1.3
2017-02-27T05:27:56.232Z,1.31
2017-02-27T05:29:06.936Z,1.43
2017-02-27T05:30:17.641Z,1.36
2017-02-27T05:31:28.345Z,1.39
2017-02-27T05:32:38.660Z,1.38
2017-02-27T05:33:49.372Z,1.38
2017-02-27T05:34:59.684Z,1.45
2017-02-27T05:36:10.390Z,1.42
2017-02-27T05:37:21.092Z,1.46
2017-02-27T05:38:31.831Z,1.5
2017-02-27T05:39:42.545Z,1.53
2017-02-27T05:40:53.265Z,1.56
2017-02-27T05:42:03.974Z,1.57
2017-02-27T05:43:14.722Z,1.5
2017-02-27T05:44:25.013Z,1.52
2017-02-27T05:45:35.724Z,1.58
2017-02-27T05:46:46.425Z,1.52
2017-02-27T05:47:57.123Z,1.46
2017-02-27T05:49:07.832Z,1.58
2017-02-27T05:50:18.530Z,1.6
2017-02-27T05:51:28.046Z,1.63
2017-02-27T05:52:38.355Z,1.67
2017-02-27T05:53:49.064Z,1.71
2017-02-27T05:54:59.406Z,1.63
2017-02-27T05:56:09.721Z,1.74
2017-02-27T05:57:20.426Z,1.67
2017-02-27T05:58:31.141Z,1.63
2017-02-27T05:59:41.848Z,1.6
2017-02-27T06:00:52.557Z,1.61
2017-02-27T06:02:03.257Z,1.64
2017-02-27T06:03:13.999Z,1.67
2017-02-27T06:04:23.902Z,1.64
2017-02-27T06:05:34.216Z,1.68
2017-02-27T06:06:44.904Z,1.64
2017-02-27T06:07:55.600Z,1.75
2017-02-27T06:09:06.300Z,1.7
2017-02-27T06:10:16.737Z,1.71
2017-02-27T06:11:27.448Z,1.61
2017-02-27T06:12:38.160Z,1.63
2017-02-27T06:13:48.902Z,1.57
2017-02-27T06:14:59.203Z,1.49
2017-02-27T06:16:09.494Z,1.52
2017-02-27T06:17:20.195Z,1.34
2017-02-27T06:18:30.900Z,1.39
2017-02-27T06:19:41.635Z,1.3
2017-02-27T06:20:52.324Z,1.39
2017-02-27T06:22:03.039Z,1.36
2017-02-27T06:23:13.343Z,1.31
2017-02-27T06:24:23.668Z,1.32
2017-02-27T06:25:34.430Z,1.34
2017-02-27T06:26:44.742Z,1.39
2017-02-27T06:27:55.444Z,1.36
2017-02-27T06:29:05.770Z,1.32
2017-02-27T06:30:16.464Z,1.3
2017-02-27T06:31:27.174Z,1.22
2017-02-27T06:32:37.874Z,1.22
2017-02-27T06:33:48.194Z,1.16
2017-02-27T06:34:58.929Z,1.13
2017-02-27T06:36:09.633Z,1.16
2017-02-27T06:37:20.338Z,1.06
2017-02-27T06:38:30.636Z,1.1
2017-02-27T06:39:41.349Z,1.04
2017-02-27T06:40:52.055Z,1
2017-02-27T06:42:02.745Z,0.92
2017-02-27T06:43:12.672Z,0.95
2017-02-27T06:44:23.399Z,0.91
2017-02-27T06:45:34.117Z,0.78
2017-02-27T06:46:44.844Z,0.89
2017-02-27T06:47:55.544Z,0.88
2017-02-27T06:49:06.252Z,0.95
2017-02-27T06:50:16.964Z,0.86
2017-02-27T06:51:27.663Z,0.99
2017-02-27T06:52:37.969Z,0.94
2017-02-27T06:53:48.672Z,0.99
2017-02-27T06:54:59.378Z,1.06
2017-02-27T06:56:10.099Z,1.04
2017-02-27T06:57:20.413Z,1.04
2017-02-27T06:58:31.124Z,1.07
2017-02-27T06:59:41.831Z,1.16
2017-02-27T07:00:52.531Z,1.2
2017-02-27T07:02:03.241Z,1.21
2017-02-27T07:03:13.541Z,1.25
2017-02-27T07:04:24.233Z,1.22
2017-02-27T07:05:34.952Z,1.2
2017-02-27T07:06:45.672Z,1.1
2017-02-27T07:07:56.380Z,1.21
2017-02-27T07:09:07.106Z,1.1
2017-02-27T07:10:17.806Z,1.18
2017-02-27T07:11:28.520Z,1.2
2017-02-27T07:12:39.239Z,1.12
2017-02-27T07:13:49.946Z,1.07
2017-02-27T07:15:00.659Z,1.09
2017-02-27T07:16:11.374Z,1.24
2017-02-27T07:17:22.095Z,1.13
2017-02-27T07:18:32.797Z,1.14
2017-02-27T07:19:43.520Z,1.27
2017-02-27T07:20:53.826Z,1.32
2017-02-27T07:22:04.551Z,1.38
2017-02-27T07:23:15.272Z,1.46
2017-02-27T07:24:25.970Z,1.52
2017-02-27T07:25:35.871Z,1.67
2017-02-27T07:26:46.598Z,1.64
2017-02-27T07:27:57.309Z,1.63
2017-02-27T07:29:08.040Z,1.75
2017-02-27T07:30:18.774Z,1.82
2017-02-27T07:31:29.480Z,1.7
2017-02-27T07:32:40.183Z,1.75
2017-02-27T07:33:50.885Z,1.68
2017-02-27T07:35:01.611Z,1.7
2017-02-27T07:36:12.319Z,1.6
2017-02-27T07:37:23.014Z,1.74
2017-02-27T07:38:33.747Z,1.88
2017-02-27T07:39:44.459Z,1.86
2017-02-27T07:40:55.170Z,1.95
2017-02-27T07:42:05.895Z,1.95
2017-02-27T07:43:16.603Z,1.98
2017-02-27T07:44:27.314Z,1.98
2017-02-27T07:45:38.025Z,1.98
2017-02-27T07:46:48.746Z,1.98
2017-02-27T07:47:59.451Z,1.95
2017-02-27T07:49:10.139Z,1.92
2017-02-27T07:50:20.843Z,1.89
2017-02-27T07:51:31.544Z,1.86
2017-02-27T07:52:42.261Z,1.84
2017-02-27T07:53:52.966Z,1.81
2017-02-27T07:55:03.672Z,1.82
2017-02-27T07:56:14.389Z,1.86
2017-02-27T07:57:25.088Z,1.84
2017-02-27T07:58:35.786Z,1.82
2017-02-27T07:59:46.512Z,1.82
2017-02-27T08:00:57.213Z,1.85
2017-02-27T08:02:07.908Z,1.75
2017-02-27T08:03:18.644Z,1.75
2017-02-27T08:04:29.345Z,1.75
2017-02-27T08:05:40.043Z,1.75
2017-02-27T08:06:50.735Z,1.71
2017-02-27T08:08:01.435Z,1.81
2017-02-27T08:09:12.163Z,1.86
2017-02-27T08:10:22.882Z,1.84
2017-02-27T08:11:33.192Z,1.85
2017-02-27T08:12:43.892Z,1.88
2017-02-27T08:13:54.224Z,1.93
2017-02-27T08:15:04.946Z,1.85
2017-02-27T08:16:15.658Z,1.7
2017-02-27T08:17:26.368Z,2
2017-02-27T08:18:36.679Z,2.01
2017-02-27T08:19:46.995Z,2.07
2017-02-27T08:20:57.299Z,2.08
2017-02-27T08:22:07.635Z,2.04
2017-02-27T08:23:18.330Z,2.22
2017-02-27T08:24:29.024Z,2.21
2017-02-27T08:25:39.746Z,2.25
2017-02-27T08:26:50.465Z,2.4
2017-02-27T08:28:01.173Z,2.46
2017-02-27T08:29:11.489Z,2.44
2017-02-27T08:30:21.808Z,2.4
2017-02-27T08:31:32.524Z,2.23
2017-02-27T08:32:43.235Z,2.32
2017-02-27T08:33:54.012Z,2.23
2017-02-27T08:35:04.750Z,2.3
2017-02-27T08:36:15.462Z,2.19
2017-02-27T08:37:26.180Z,2.23
2017-02-27T08:38:36.102Z,2.21
2017-02-27T08:39:46.816Z,2.19
2017-02-27T08:40:57.540Z,2.19
2017-02-27T08:42:08.236Z,2.12
2017-02-27T08:43:18.967Z,2.08
2017-02-27T08:44:29.271Z,2.04
2017-02-27T08:45:39.618Z,2
2017-02-27T08:46:49.536Z,2.04
2017-02-27T08:48:00.231Z,1.98
2017-02-27T08:49:10.933Z,1.86
2017-02-27T08:50:21.638Z,1.93
2017-02-27T08:51:32.336Z,2.01
2017-02-27T08:52:43.039Z,2.01
2017-02-27T08:53:53.733Z,2.01
2017-02-27T08:55:04.037Z,2.01
2017-02-27T08:56:14.346Z,2.04
2017-02-27T08:57:25.049Z,2.05
2017-02-27T08:58:35.780Z,2.12
2017-02-27T08:59:46.476Z,2.12
2017-02-27T09:00:57.175Z,2.23
2017-02-27T09:02:07.494Z,2.32
2017-02-27T09:03:18.268Z,2.41
2017-02-27T09:04:28.974Z,2.58
2017-02-27T09:05:39.672Z,2.65
2017-02-27T09:06:49.971Z,2.75
2017-02-27T09:08:00.685Z,2.75
2017-02-27T09:09:10.996Z,2.85
2017-02-27T09:10:21.712Z,2.91
2017-02-27T09:11:32.422Z,2.94
2017-02-27T09:12:43.425Z,3.05
2017-02-27T09:13:54.138Z,3.13
2017-02-27T09:15:04.442Z,3.26
2017-02-27T09:16:15.143Z,3.37
2017-02-27T09:17:25.859Z,3.55
2017-02-27T09:18:36.173Z,3.68
2017-02-27T09:19:46.884Z,3.76
2017-02-27T09:20:57.594Z,3.92
2017-02-27T09:22:07.908Z,3.99
2017-02-27T09:23:18.217Z,4.14
2017-02-27T09:24:28.934Z,4.28
2017-02-27T09:25:39.245Z,4.38
2017-02-27T09:26:49.963Z,4.4
2017-02-27T09:28:00.693Z,4.5
2017-02-27T09:29:11.026Z,4.5
2017-02-27T09:30:21.728Z,4.49
2017-02-27T09:31:32.420Z,4.61
2017-02-27T09:32:43.115Z,4.63
2017-02-27T09:33:53.835Z,4.75
2017-02-27T09:35:04.545Z,4.83
2017-02-27T09:36:15.255Z,4.98
2017-02-27T09:37:25.160Z,5.01
2017-02-27T09:38:35.461Z,5.13
2017-02-27T09:39:46.177Z,5.34
2017-02-27T09:40:56.905Z,5.41
2017-02-27T09:42:07.609Z,5.56
2017-02-27T09:43:18.312Z,5.67
2017-02-27T09:44:28.659Z,5.72
2017-02-27T09:45:39.370Z,5.79
2017-02-27T09:46:49.689Z,5.8
2017-02-27T09:48:00.389Z,5.83
2017-02-27T09:49:11.087Z,5.84
2017-02-27T09:50:21.788Z,5.97
2017-02-27T09:51:32.506Z,5.95
2017-02-27T09:52:43.223Z,5.94
2017-02-27T09:53:53.939Z,6.05
2017-02-27T09:55:04.649Z,6.25
2017-02-27T09:56:15.380Z,6.16
2017-02-27T09:57:26.086Z,6.41
2017-02-27T09:58:36.788Z,6.36
2017-02-27T09:59:47.505Z,6.53
2017-02-27T10:00:57.826Z,6.62
2017-02-27T10:02:08.552Z,6.57
2017-02-27T10:03:19.288Z,6.65
2017-02-27T10:04:29.986Z,6.62
2017-02-27T10:05:40.698Z,6.77
2017-02-27T10:06:51.012Z,6.74
2017-02-27T10:08:01.727Z,6.72
2017-02-27T10:09:12.045Z,6.74
2017-02-27T10:10:22.776Z,6.9
2017-02-27T10:11:33.478Z,7
2017-02-27T10:12:44.202Z,7.18
2017-02-27T10:13:54.950Z,7.29
2017-02-27T10:15:05.694Z,7.33
2017-02-27T10:16:16.395Z,7.48
2017-02-27T10:17:27.145Z,7.53
2017-02-27T10:18:37.854Z,7.7
2017-02-27T10:19:48.560Z,7.55
2017-02-27T10:20:59.287Z,7.18
2017-02-27T10:22:09.994Z,6.93
2017-02-27T10:23:19.908Z,6.8
2017-02-27T10:24:30.210Z,6.65
2017-02-27T10:25:40.131Z,6.34
2017-02-27T10:26:50.834Z,5.91
2017-02-27T10:28:01.543Z,5.7
2017-02-27T10:29:12.258Z,5.65
2017-02-27T10:30:22.568Z,5.55
2017-02-27T10:31:33.275Z,5.33
2017-02-27T10:32:43.989Z,5.29
2017-02-27T10:33:54.695Z,5.22
2017-02-27T10:35:05.402Z,5.2
2017-02-27T10:36:16.112Z,5.01
2017-02-27T10:37:26.819Z,4.94
2017-02-27T10:38:37.527Z,5
2017-02-27T10:39:48.294Z,5.26
2017-02-27T10:40:58.999Z,5.56
2017-02-27T10:42:09.707Z,5.74
2017-02-27T10:43:20.016Z,5.83
2017-02-27T10:44:30.726Z,5.9
2017-02-27T10:45:41.439Z,5.97
2017-02-27T10:46:52.161Z,6.17
2017-02-27T10:48:02.866Z,6.32
2017-02-27T10:49:13.589Z,6.39
2017-02-27T10:50:24.311Z,6.49
2017-02-27T10:51:35.089Z,6.62
2017-02-27T10:52:45.407Z,6.57
2017-02-27T10:53:56.170Z,6.74
2017-02-27T10:55:06.877Z,6.83
2017-02-27T10:56:17.584Z,6.92
2017-02-27T10:57:28.288Z,6.93
2017-02-27T10:58:38.998Z,7
2017-02-27T10:59:49.725Z,6.71
2017-02-27T11:01:00.436Z,6.65
2017-02-27T11:02:11.161Z,6.67
2017-02-27T11:03:21.867Z,6.5
2017-02-27T11:04:32.601Z,6.41
2017-02-27T11:05:43.304Z,6.5
2017-02-27T11:06:54.041Z,6.59
2017-02-27T11:08:04.768Z,6.59
2017-02-27T11:09:15.481Z,6.65
2017-02-27T11:10:26.196Z,6.44
2017-02-27T11:11:36.931Z,6.41
2017-02-27T11:12:47.635Z,6.49
2017-02-27T11:13:58.336Z,6.57
2017-02-27T11:15:09.048Z,6.75
2017-02-27T11:16:19.773Z,7.22
2017-02-27T11:17:30.478Z,7.5
2017-02-27T11:18:41.186Z,7.62
2017-02-27T11:19:51.890Z,7.7
2017-02-27T11:21:02.602Z,7.87
2017-02-27T11:22:12.926Z,7.75
2017-02-27T11:23:23.652Z,7.41
2017-02-27T11:24:33.965Z,7.31
2017-02-27T11:25:45.336Z,7.14
2017-02-27T11:26:56.051Z,7.23
2017-02-27T11:28:06.769Z,7.48
2017-02-27T11:29:17.106Z,7.81
2017-02-27T11:30:27.729Z,8.21
2017-02-27T11:31:39.680Z,8.32
2017-02-27T11:32:50.649Z,8.45
2017-02-27T11:34:01.704Z,8.77
2017-02-27T11:35:12.826Z,8.61
2017-02-27T11:36:23.946Z,8.54
2017-02-27T11:37:35.061Z,9.02
2017-02-27T11:38:45.782Z,9.37
2017-02-27T11:39:56.657Z,9.58
2017-02-27T11:41:07.386Z,9.76
2017-02-27T11:42:18.098Z,9.87
2017-02-27T11:43:28.416Z,10.05
2017-02-27T11:44:39.136Z,10.06
2017-02-27T11:45:49.861Z,10.17
2017-02-27T11:47:00.584Z,10.33
2017-02-27T11:48:11.326Z,10.65
2017-02-27T11:49:22.036Z,10.92
2017-02-27T11:50:32.786Z,10.89
2017-02-27T11:51:43.490Z,11.01
2017-02-27T11:52:54.210Z,11.31
2017-02-27T11:54:04.956Z,11.55
2017-02-27T11:55:15.310Z,11.63
2017-02-27T11:56:26.019Z,11.59
2017-02-27T11:57:36.349Z,11.81
2017-02-27T11:58:46.299Z,12.12
2017-02-27T11:59:56.612Z,11.97
2017-02-27T12:01:06.931Z,12.37
2017-02-27T12:02:17.655Z,12.84
2017-02-27T12:03:30.125Z,13.27
2017-02-27T12:04:40.846Z,13.54
2017-02-27T12:05:51.556Z,13.7
2017-02-27T12:07:02.277Z,14.03
2017-02-27T12:08:13.026Z,14.23
2017-02-27T12:09:26.144Z,13.83
2017-02-27T12:10:36.867Z,13.62
2017-02-27T12:11:47.586Z,13.4
2017-02-27T12:12:58.308Z,13.5
2017-02-27T12:14:08.982Z,13.3
2017-02-27T12:15:19.852Z,13.13
2017-02-27T12:16:30.162Z,13.19
2017-02-27T12:17:40.515Z,13.21
2017-02-27T12:18:51.277Z,13.36
2017-02-27T12:20:01.598Z,13.52
2017-02-27T12:21:12.325Z,14.19
2017-02-27T12:22:23.058Z,14.73
2017-02-27T12:23:33.389Z,15.35
2017-02-27T12:24:43.308Z,15.8
2017-02-27T12:25:54.023Z,16.18
2017-02-27T12:27:03.941Z,16.51
2017-02-27T12:28:13.863Z,16.83
2017-02-27T12:29:24.590Z,16.95
2017-02-27T12:30:34.529Z,17.09
2017-02-27T12:31:44.869Z,16.65
2017-02-27T12:32:55.617Z,16.77
2017-02-27T12:34:06.337Z,16.86
2017-02-27T12:35:17.072Z,17.02
2017-02-27T12:36:27.389Z,17.14
2017-02-27T12:37:38.116Z,17.57
2017-02-27T12:38:48.455Z,17.79
2017-02-27T12:39:59.197Z,18.05
2017-02-27T12:41:09.565Z,18.48
2017-02-27T12:42:20.307Z,18.68
2017-02-27T12:43:31.025Z,18.91
2017-02-27T12:44:41.759Z,19.23
2017-02-27T12:45:52.492Z,19.41
2017-02-27T12:47:02.829Z,19.35
2017-02-27T12:48:13.560Z,19.38
2017-02-27T12:49:24.300Z,19.44
2017-02-27T12:50:34.222Z,19.34
2017-02-27T12:51:44.963Z,19.12
2017-02-27T12:52:55.715Z,19.11
2017-02-27T12:54:06.452Z,19.62
2017-02-27T12:55:17.178Z,19.78
2017-02-27T12:56:27.904Z,20.07
2017-02-27T12:57:38.237Z,20.18
2017-02-27T12:58:48.180Z,19.97
2017-02-27T12:59:58.907Z,19.93
2017-02-27T13:01:09.641Z,19.75
2017-02-27T13:02:19.983Z,19.66
2017-02-27T13:03:30.700Z,19.47
2017-02-27T13:04:41.429Z,19.11
2017-02-27T13:05:52.150Z,19.08
2017-02-27T13:07:02.878Z,18.94
2017-02-27T13:08:13.209Z,18.81
2017-02-27T13:09:23.528Z,18.81
2017-02-27T13:10:34.274Z,18.73
2017-02-27T13:11:44.987Z,18.48
2017-02-27T13:12:55.715Z,18.24
2017-02-27T13:14:06.439Z,17.84
2017-02-27T13:15:17.165Z,17.42
2017-02-27T13:16:27.902Z,16.86
2017-02-27T13:17:38.656Z,16.16
2017-02-27T13:18:49.365Z,16
2017-02-27T13:20:00.083Z,15.78
2017-02-27T13:21:10.437Z,15.59
2017-02-27T13:22:21.168Z,15.41
2017-02-27T13:23:31.869Z,14.87
2017-02-27T13:24:42.617Z,14.38
2017-02-27T13:25:53.343Z,14.25
2017-02-27T13:27:04.067Z,14.08
2017-02-27T13:28:14.810Z,14
2017-02-27T13:29:25.521Z,13.82
2017-02-27T13:30:36.233Z,13.79
2017-02-27T13:31:46.947Z,13.2
2017-02-27T13:32:57.716Z,13.17
2017-02-27T13:34:08.042Z,12.98
2017-02-27T13:35:17.971Z,12.78
2017-02-27T13:36:28.689Z,12.65
2017-02-27T13:37:39.419Z,12.5
2017-02-27T13:38:50.151Z,12.44
2017-02-27T13:40:00.871Z,12.37
2017-02-27T13:41:11.204Z,12.4
2017-02-27T13:42:21.925Z,12.18
2017-02-27T13:43:32.653Z,12.17
2017-02-27T13:44:42.994Z,12.21
2017-02-27T13:45:53.719Z,12.15
2017-02-27T13:47:04.442Z,12.2
2017-02-27T13:48:14.357Z,12.28
2017-02-27T13:49:25.085Z,12.29
2017-02-27T13:50:35.016Z,12.32
2017-02-27T13:51:45.746Z,12.2
2017-02-27T13:52:56.060Z,12.17
2017-02-27T13:54:06.799Z,12.17
2017-02-27T13:55:17.535Z,12.17
2017-02-27T13:56:27.857Z,12.11
2017-02-27T13:57:37.801Z,12.03
2017-02-27T13:58:48.109Z,11.96
2017-02-27T13:59:58.472Z,11.89
2017-02-27T14:01:09.180Z,11.89
2017-02-27T14:02:19.483Z,11.7
2017-02-27T14:03:30.211Z,11.59
2017-02-27T14:04:40.954Z,11.49
2017-02-27T14:05:51.667Z,11.33
2017-02-27T14:07:02.401Z,11.22
2017-02-27T14:08:13.138Z,11.1
2017-02-27T14:09:23.445Z,10.98
2017-02-27T14:10:34.157Z,10.87
2017-02-27T14:11:44.873Z,10.46
2017-02-27T14:12:55.614Z,10.3
2017-02-27T14:14:06.327Z,10.2
2017-02-27T14:15:17.043Z,10.06
2017-02-27T14:16:27.778Z,9.99
2017-02-27T14:17:38.086Z,9.91
2017-02-27T14:18:48.786Z,9.82
2017-02-27T14:19:59.511Z,9.81
2017-02-27T14:21:09.830Z,9.73
2017-02-27T14:22:20.543Z,9.67
2017-02-27T14:23:31.254Z,9.55
2017-02-27T14:24:41.563Z,9.55
2017-02-27T14:25:52.272Z,9.48
2017-02-27T14:27:02.990Z,9.37
2017-02-27T14:28:13.326Z,9.3
2017-02-27T14:29:24.052Z,9.05
2017-02-27T14:30:34.393Z,9.03
2017-02-27T14:31:44.706Z,8.92
2017-02-27T14:32:55.434Z,8.78
2017-02-27T14:34:06.162Z,8.86
2017-02-27T14:35:16.475Z,8.74
2017-02-27T14:36:27.184Z,8.78
2017-02-27T14:37:37.523Z,8.75
2017-02-27T14:38:48.277Z,8.68
2017-02-27T14:39:59.004Z,8.5
2017-02-27T14:41:09.726Z,8.41
2017-02-27T14:42:20.454Z,8.35
2017-02-27T14:43:31.199Z,8.26
2017-02-27T14:44:41.935Z,8.18
2017-02-27T14:45:52.652Z,8.18
2017-02-27T14:47:03.365Z,8.11
2017-02-27T14:48:13.697Z,8.06
2017-02-27T14:49:24.022Z,8.14
2017-02-27T14:50:34.740Z,8.05
2017-02-27T14:51:45.037Z,7.96
2017-02-27T14:52:55.365Z,7.93
2017-02-27T14:54:06.076Z,7.77
2017-02-27T14:55:16.406Z,7.78
2017-02-27T14:56:27.118Z,7.66
2017-02-27T14:57:37.821Z,7.61
2017-02-27T14:58:48.574Z,7.64
2017-02-27T14:59:58.890Z,7.5
2017-02-27T15:01:09.598Z,7.41
2017-02-27T15:02:20.327Z,7.23
2017-02-27T15:03:30.245Z,7.31
2017-02-27T15:04:40.962Z,7.14
2017-02-27T15:05:51.666Z,7.21
2017-02-27T15:07:02.392Z,7.19
2017-02-27T15:08:13.088Z,7.14
2017-02-27T15:09:23.814Z,7.14
2017-02-27T15:10:34.153Z,7.11
2017-02-27T15:11:44.857Z,7.04
2017-02-27T15:12:55.571Z,7.03
2017-02-27T15:14:06.297Z,7.13
2017-02-27T15:15:17.008Z,6.97
2017-02-27T15:16:27.729Z,6.89
2017-02-27T15:17:38.044Z,6.87
2017-02-27T15:18:48.749Z,6.78
2017-02-27T15:19:58.682Z,6.72
2017-02-27T15:21:09.401Z,6.7
2017-02-27T15:22:20.130Z,6.59
2017-02-27T15:23:30.832Z,6.68
2017-02-27T15:24:41.543Z,6.59
2017-02-27T15:25:52.251Z,6.6
2017-02-27T15:27:02.561Z,6.5
2017-02-27T15:28:13.277Z,6.49
2017-02-27T15:29:23.988Z,6.44
2017-02-27T15:30:34.695Z,6.16
2017-02-27T15:31:45.404Z,6.09
2017-02-27T15:32:56.155Z,5.95
2017-02-27T15:34:06.866Z,5.88
2017-02-27T15:35:17.596Z,5.83
2017-02-27T15:36:28.312Z,5.83
2017-02-27T15:37:38.633Z,5.77
2017-02-27T15:38:49.353Z,5.81
2017-02-27T15:40:00.081Z,5.76
2017-02-27T15:41:10.794Z,5.61
2017-02-27T15:42:21.133Z,5.61
2017-02-27T15:43:31.832Z,5.54
2017-02-27T15:44:42.169Z,5.54
2017-02-27T15:45:52.881Z,5.52
2017-02-27T15:47:03.604Z,5.49
2017-02-27T15:48:14.325Z,5.4
2017-02-27T15:49:25.026Z,5.4
2017-02-27T15:50:35.338Z,5.33